sensor_id;sensor_type;location;lat;lon;timestamp;P1;durP1;ratioP1;P2;durP2;ratioP2
11522;SDS011;70090;43.208;27.904;2024-03-23T00:52:49;192.87;;;127.17;;
11522;SDS011;70090;43.208;27.904;2024-03-23T00:55:16;174.07;;;113.90;;
11522;SDS011;70090;43.208;27.904;2024-03-23T00:57:42;147.83;;;99.90;;
11522;SDS011;70090;43.208;27.904;2024-03-23T01:00:09;83.53;;;55.47;;
11522;SDS011;70090;43.208;27.904;2024-03-23T01:02:36;88.47;;;58.73;;
11522;SDS011;70090;43.208;27.904;2024-03-23T01:05:03;90.17;;;58.13;;
11522;SDS011;70090;43.208;27.904;2024-03-23T01:07:29;79.93;;;53.60;;
11522;SDS011;70090;43.208;27.904;2024-03-23T01:09:58;73.40;;;53.57;;
11522;SDS011;70090;43.208;27.904;2024-03-23T01:12:24;96.70;;;67.73;;
11522;SDS011;70090;43.208;27.904;2024-03-23T01:14:51;86.20;;;63.33;;
11522;SDS011;70090;43.208;27.904;2024-03-23T01:17:17;81.87;;;57.67;;
11522;SDS011;70090;43.208;27.904;2024-03-23T01:19:44;62.37;;;44.10;;
11522;SDS011;70090;43.208;27.904;2024-03-23T01:22:10;75.07;;;53.60;;
11522;SDS011;70090;43.208;27.904;2024-03-23T01:24:37;145.50;;;103.67;;
11522;SDS011;70090;43.208;27.904;2024-03-23T01:27:04;200.23;;;141.97;;
11522;SDS011;70090;43.208;27.904;2024-03-23T01:29:31;184.07;;;127.47;;
11522;SDS011;70090;43.208;27.904;2024-03-23T01:31:57;159.07;;;114.77;;
11522;SDS011;70090;43.208;27.904;2024-03-23T01:34:24;113.87;;;83.80;;
11522;SDS011;70090;43.208;27.904;2024-03-23T01:36:50;65.30;;;44.50;;
11522;SDS011;70090;43.208;27.904;2024-03-23T01:39:17;56.50;;;39.70;;
11522;SDS011;70090;43.208;27.904;2024-03-23T01:41:43;44.93;;;33.30;;
11522;SDS011;70090;43.208;27.904;2024-03-23T01:44:12;48.60;;;34.23;;
11522;SDS011;70090;43.208;27.904;2024-03-23T01:46:38;49.87;;;37.00;;
11522;SDS011;70090;43.208;27.904;2024-03-23T01:49:06;52.90;;;38.20;;
11522;SDS011;70090;43.208;27.904;2024-03-23T01:51:33;50.93;;;36.90;;
11522;SDS011;70090;43.208;27.904;2024-03-23T01:54:01;47.73;;;34.63;;
11522;SDS011;70090;43.208;27.904;2024-03-23T01:56:28;44.23;;;32.87;;
11522;SDS011;70090;43.208;27.904;2024-03-23T01:58:56;41.60;;;28.37;;
11522;SDS011;70090;43.208;27.904;2024-03-23T02:01:23;40.63;;;27.73;;
11522;SDS011;70090;43.208;27.904;2024-03-23T02:03:50;37.87;;;28.07;;
11522;SDS011;70090;43.208;27.904;2024-03-23T02:06:16;50.47;;;34.73;;
11522;SDS011;70090;43.208;27.904;2024-03-23T02:08:43;58.13;;;40.30;;
11522;SDS011;70090;43.208;27.904;2024-03-23T02:11:09;58.23;;;38.90;;
11522;SDS011;70090;43.208;27.904;2024-03-23T02:13:36;52.50;;;36.10;;
11522;SDS011;70090;43.208;27.904;2024-03-23T02:16:03;56.03;;;39.63;;
11522;SDS011;70090;43.208;27.904;2024-03-23T02:18:33;58.30;;;40.20;;
11522;SDS011;70090;43.208;27.904;2024-03-23T02:20:59;54.17;;;36.17;;
11522;SDS011;70090;43.208;27.904;2024-03-23T02:23:27;53.57;;;35.87;;
11522;SDS011;70090;43.208;27.904;2024-03-23T02:25:53;53.27;;;36.47;;
11522;SDS011;70090;43.208;27.904;2024-03-23T02:28:20;51.47;;;33.03;;
11522;SDS011;70090;43.208;27.904;2024-03-23T02:30:47;51.93;;;33.73;;
11522;SDS011;70090;43.208;27.904;2024-03-23T02:33:14;46.67;;;31.70;;
11522;SDS011;70090;43.208;27.904;2024-03-23T02:35:41;39.63;;;29.97;;
11522;SDS011;70090;43.208;27.904;2024-03-23T02:38:08;46.40;;;31.43;;
11522;SDS011;70090;43.208;27.904;2024-03-23T02:40:36;45.33;;;30.93;;
11522;SDS011;70090;43.208;27.904;2024-03-23T02:43:03;48.43;;;32.87;;
11522;SDS011;70090;43.208;27.904;2024-03-23T02:45:29;52.13;;;34.23;;
11522;SDS011;70090;43.208;27.904;2024-03-23T02:47:57;49.73;;;33.73;;
11522;SDS011;70090;43.208;27.904;2024-03-23T02:50:23;50.57;;;31.87;;
11522;SDS011;70090;43.208;27.904;2024-03-23T02:52:50;45.77;;;31.37;;
11522;SDS011;70090;43.208;27.904;2024-03-23T02:55:16;49.57;;;30.60;;
11522;SDS011;70090;43.208;27.904;2024-03-23T02:57:44;49.87;;;33.27;;
11522;SDS011;70090;43.208;27.904;2024-03-23T03:00:11;48.67;;;33.47;;
11522;SDS011;70090;43.208;27.904;2024-03-23T03:02:38;46.47;;;32.53;;
11522;SDS011;70090;43.208;27.904;2024-03-23T03:05:04;45.47;;;30.53;;
11522;SDS011;70090;43.208;27.904;2024-03-23T03:07:34;46.90;;;30.43;;
11522;SDS011;70090;43.208;27.904;2024-03-23T03:10:00;44.27;;;30.63;;
11522;SDS011;70090;43.208;27.904;2024-03-23T03:12:27;45.90;;;31.43;;
11522;SDS011;70090;43.208;27.904;2024-03-23T03:14:54;44.90;;;31.70;;
11522;SDS011;70090;43.208;27.904;2024-03-23T03:17:21;51.77;;;35.03;;
11522;SDS011;70090;43.208;27.904;2024-03-23T03:19:48;54.13;;;35.87;;
11522;SDS011;70090;43.208;27.904;2024-03-23T03:22:20;53.60;;;34.97;;
11522;SDS011;70090;43.208;27.904;2024-03-23T03:24:46;55.10;;;33.97;;
11522;SDS011;70090;43.208;27.904;2024-03-23T03:27:13;56.00;;;36.07;;
11522;SDS011;70090;43.208;27.904;2024-03-23T03:29:40;50.23;;;32.57;;
11522;SDS011;70090;43.208;27.904;2024-03-23T03:32:08;47.57;;;33.27;;
11522;SDS011;70090;43.208;27.904;2024-03-23T03:34:34;56.43;;;35.53;;
11522;SDS011;70090;43.208;27.904;2024-03-23T03:37:01;50.20;;;33.77;;
11522;SDS011;70090;43.208;27.904;2024-03-23T03:39:27;47.33;;;32.97;;
11522;SDS011;70090;43.208;27.904;2024-03-23T03:41:54;48.97;;;32.00;;
11522;SDS011;70090;43.208;27.904;2024-03-23T03:44:20;46.40;;;32.57;;
11522;SDS011;70090;43.208;27.904;2024-03-23T03:46:47;43.30;;;30.43;;
11522;SDS011;70090;43.208;27.904;2024-03-23T03:49:14;40.97;;;28.73;;
11522;SDS011;70090;43.208;27.904;2024-03-23T03:51:41;45.17;;;31.87;;
11522;SDS011;70090;43.208;27.904;2024-03-23T03:54:07;41.03;;;27.93;;
11522;SDS011;70090;43.208;27.904;2024-03-23T03:56:34;43.07;;;28.13;;
11522;SDS011;70090;43.208;27.904;2024-03-23T03:59:00;38.47;;;28.07;;
11522;SDS011;70090;43.208;27.904;2024-03-23T04:01:27;38.33;;;26.27;;
11522;SDS011;70090;43.208;27.904;2024-03-23T04:03:53;39.30;;;25.63;;
11522;SDS011;70090;43.208;27.904;2024-03-23T04:06:22;37.83;;;27.47;;
11522;SDS011;70090;43.208;27.904;2024-03-23T04:08:48;37.67;;;27.57;;
11522;SDS011;70090;43.208;27.904;2024-03-23T04:11:15;45.03;;;29.10;;
11522;SDS011;70090;43.208;27.904;2024-03-23T04:13:41;43.03;;;29.43;;
11522;SDS011;70090;43.208;27.904;2024-03-23T04:16:09;43.20;;;30.33;;
11522;SDS011;70090;43.208;27.904;2024-03-23T04:18:35;42.17;;;29.20;;
11522;SDS011;70090;43.208;27.904;2024-03-23T04:21:03;40.33;;;27.10;;
11522;SDS011;70090;43.208;27.904;2024-03-23T04:23:30;35.63;;;26.77;;
11522;SDS011;70090;43.208;27.904;2024-03-23T04:26:02;43.87;;;28.83;;
11522;SDS011;70090;43.208;27.904;2024-03-23T04:28:29;40.90;;;28.90;;
11522;SDS011;70090;43.208;27.904;2024-03-23T04:30:56;42.13;;;29.37;;
11522;SDS011;70090;43.208;27.904;2024-03-23T04:33:22;40.13;;;29.00;;
11522;SDS011;70090;43.208;27.904;2024-03-23T04:35:49;42.07;;;28.90;;
11522;SDS011;70090;43.208;27.904;2024-03-23T04:38:15;38.43;;;26.37;;
11522;SDS011;70090;43.208;27.904;2024-03-23T04:40:44;44.20;;;30.90;;
11522;SDS011;70090;43.208;27.904;2024-03-23T04:43:11;50.13;;;32.73;;
11522;SDS011;70090;43.208;27.904;2024-03-23T04:45:38;48.53;;;34.13;;
11522;SDS011;70090;43.208;27.904;2024-03-23T04:48:06;50.87;;;34.83;;
11522;SDS011;70090;43.208;27.904;2024-03-23T04:50:34;50.40;;;33.60;;
11522;SDS011;70090;43.208;27.904;2024-03-23T04:53:00;46.70;;;31.20;;
11522;SDS011;70090;43.208;27.904;2024-03-23T04:55:27;51.87;;;33.20;;
11522;SDS011;70090;43.208;27.904;2024-03-23T04:57:55;53.07;;;36.33;;
11522;SDS011;70090;43.208;27.904;2024-03-23T05:00:21;56.60;;;38.37;;
11522;SDS011;70090;43.208;27.904;2024-03-23T05:02:48;63.83;;;44.13;;
11522;SDS011;70090;43.208;27.904;2024-03-23T05:05:16;67.77;;;41.63;;
11522;SDS011;70090;43.208;27.904;2024-03-23T05:07:42;66.10;;;39.20;;
11522;SDS011;70090;43.208;27.904;2024-03-23T05:10:09;56.73;;;37.60;;
11522;SDS011;70090;43.208;27.904;2024-03-23T05:12:35;59.70;;;38.97;;
11522;SDS011;70090;43.208;27.904;2024-03-23T05:15:04;60.07;;;41.10;;
11522;SDS011;70090;43.208;27.904;2024-03-23T05:17:31;65.67;;;44.70;;
11522;SDS011;70090;43.208;27.904;2024-03-23T05:19:58;70.37;;;44.97;;
11522;SDS011;70090;43.208;27.904;2024-03-23T05:22:24;65.20;;;42.20;;
11522;SDS011;70090;43.208;27.904;2024-03-23T05:24:52;65.27;;;42.70;;
11522;SDS011;70090;43.208;27.904;2024-03-23T05:27:18;62.73;;;44.53;;
11522;SDS011;70090;43.208;27.904;2024-03-23T05:29:45;68.27;;;42.07;;
11522;SDS011;70090;43.208;27.904;2024-03-23T05:32:14;62.27;;;41.33;;
11522;SDS011;70090;43.208;27.904;2024-03-23T05:34:41;61.90;;;40.77;;
11522;SDS011;70090;43.208;27.904;2024-03-23T05:37:07;59.17;;;40.27;;
11522;SDS011;70090;43.208;27.904;2024-03-23T05:39:34;59.20;;;38.93;;
11522;SDS011;70090;43.208;27.904;2024-03-23T05:42:00;61.27;;;42.03;;
11522;SDS011;70090;43.208;27.904;2024-03-23T05:44:27;58.23;;;40.13;;
11522;SDS011;70090;43.208;27.904;2024-03-23T05:46:53;63.93;;;41.63;;
11522;SDS011;70090;43.208;27.904;2024-03-23T05:49:22;58.20;;;39.57;;
11522;SDS011;70090;43.208;27.904;2024-03-23T05:51:48;61.20;;;39.73;;
11522;SDS011;70090;43.208;27.904;2024-03-23T05:54:15;53.50;;;36.23;;
11522;SDS011;70090;43.208;27.904;2024-03-23T05:56:41;55.17;;;37.33;;
11522;SDS011;70090;43.208;27.904;2024-03-23T05:59:08;56.63;;;38.43;;
11522;SDS011;70090;43.208;27.904;2024-03-23T06:01:34;58.43;;;40.83;;
11522;SDS011;70090;43.208;27.904;2024-03-23T06:04:01;60.10;;;42.77;;
11522;SDS011;70090;43.208;27.904;2024-03-23T06:06:29;57.53;;;40.00;;
11522;SDS011;70090;43.208;27.904;2024-03-23T06:08:56;56.43;;;37.90;;
11522;SDS011;70090;43.208;27.904;2024-03-23T06:11:22;54.43;;;36.63;;
11522;SDS011;70090;43.208;27.904;2024-03-23T06:13:51;54.17;;;37.13;;
11522;SDS011;70090;43.208;27.904;2024-03-23T06:16:17;50.63;;;36.10;;
11522;SDS011;70090;43.208;27.904;2024-03-23T06:18:48;52.73;;;35.20;;
11522;SDS011;70090;43.208;27.904;2024-03-23T06:21:14;49.20;;;35.20;;
11522;SDS011;70090;43.208;27.904;2024-03-23T06:23:43;51.63;;;34.93;;
11522;SDS011;70090;43.208;27.904;2024-03-23T06:26:13;49.67;;;34.43;;
11522;SDS011;70090;43.208;27.904;2024-03-23T06:28:40;45.70;;;33.20;;
11522;SDS011;70090;43.208;27.904;2024-03-23T06:31:08;50.00;;;33.70;;
11522;SDS011;70090;43.208;27.904;2024-03-23T06:33:35;48.97;;;33.93;;
11522;SDS011;70090;43.208;27.904;2024-03-23T06:36:01;51.73;;;33.73;;
11522;SDS011;70090;43.208;27.904;2024-03-23T06:38:29;50.60;;;34.47;;
11522;SDS011;70090;43.208;27.904;2024-03-23T06:40:56;48.33;;;34.27;;
11522;SDS011;70090;43.208;27.904;2024-03-23T06:43:23;49.87;;;34.90;;
11522;SDS011;70090;43.208;27.904;2024-03-23T06:45:52;54.87;;;37.20;;
11522;SDS011;70090;43.208;27.904;2024-03-23T06:48:19;68.07;;;51.30;;
11522;SDS011;70090;43.208;27.904;2024-03-23T06:50:45;105.63;;;80.87;;
11522;SDS011;70090;43.208;27.904;2024-03-23T06:53:12;66.30;;;50.83;;
11522;SDS011;70090;43.208;27.904;2024-03-23T06:55:38;65.67;;;45.17;;
11522;SDS011;70090;43.208;27.904;2024-03-23T06:58:07;42.73;;;31.83;;
11522;SDS011;70090;43.208;27.904;2024-03-23T07:00:33;47.33;;;32.10;;
11522;SDS011;70090;43.208;27.904;2024-03-23T07:03:01;45.87;;;31.73;;
11522;SDS011;70090;43.208;27.904;2024-03-23T07:05:29;43.57;;;31.60;;
11522;SDS011;70090;43.208;27.904;2024-03-23T07:07:56;44.80;;;32.27;;
11522;SDS011;70090;43.208;27.904;2024-03-23T07:10:22;47.83;;;33.03;;
11522;SDS011;70090;43.208;27.904;2024-03-23T07:12:49;44.27;;;31.50;;
11522;SDS011;70090;43.208;27.904;2024-03-23T07:15:16;42.37;;;32.97;;
11522;SDS011;70090;43.208;27.904;2024-03-23T07:17:46;40.13;;;30.23;;
11522;SDS011;70090;43.208;27.904;2024-03-23T07:20:12;47.13;;;34.90;;
11522;SDS011;70090;43.208;27.904;2024-03-23T07:22:40;48.13;;;34.03;;
11522;SDS011;70090;43.208;27.904;2024-03-23T07:25:06;42.60;;;32.13;;
11522;SDS011;70090;43.208;27.904;2024-03-23T07:27:33;39.57;;;30.43;;
11522;SDS011;70090;43.208;27.904;2024-03-23T07:29:59;44.73;;;32.30;;
11522;SDS011;70090;43.208;27.904;2024-03-23T07:32:28;34.93;;;27.90;;
11522;SDS011;70090;43.208;27.904;2024-03-23T07:34:54;43.13;;;33.07;;
11522;SDS011;70090;43.208;27.904;2024-03-23T07:37:21;53.03;;;39.80;;
11522;SDS011;70090;43.208;27.904;2024-03-23T07:39:47;51.23;;;39.43;;
11522;SDS011;70090;43.208;27.904;2024-03-23T07:42:14;38.63;;;32.03;;
11522;SDS011;70090;43.208;27.904;2024-03-23T07:44:40;39.10;;;32.37;;
11522;SDS011;70090;43.208;27.904;2024-03-23T07:47:07;40.10;;;31.07;;
11522;SDS011;70090;43.208;27.904;2024-03-23T07:49:34;32.83;;;27.10;;
11522;SDS011;70090;43.208;27.904;2024-03-23T07:52:01;35.37;;;27.23;;
11522;SDS011;70090;43.208;27.904;2024-03-23T07:54:28;35.57;;;26.87;;
11522;SDS011;70090;43.208;27.904;2024-03-23T07:56:55;32.17;;;25.10;;
11522;SDS011;70090;43.208;27.904;2024-03-23T07:59:21;29.80;;;23.53;;
11522;SDS011;70090;43.208;27.904;2024-03-23T08:01:48;32.33;;;27.40;;
11522;SDS011;70090;43.208;27.904;2024-03-23T08:04:14;37.90;;;31.83;;
11522;SDS011;70090;43.208;27.904;2024-03-23T08:06:43;38.70;;;31.07;;
11522;SDS011;70090;43.208;27.904;2024-03-23T08:09:09;35.97;;;30.87;;
11522;SDS011;70090;43.208;27.904;2024-03-23T08:11:36;37.27;;;33.07;;
11522;SDS011;70090;43.208;27.904;2024-03-23T08:14:03;43.97;;;33.20;;
11522;SDS011;70090;43.208;27.904;2024-03-23T08:16:31;40.83;;;33.20;;
11522;SDS011;70090;43.208;27.904;2024-03-23T08:18:57;32.60;;;27.43;;
11522;SDS011;70090;43.208;27.904;2024-03-23T08:21:24;31.80;;;27.00;;
11522;SDS011;70090;43.208;27.904;2024-03-23T08:23:53;25.03;;;19.67;;
11522;SDS011;70090;43.208;27.904;2024-03-23T08:26:20;29.80;;;23.63;;
11522;SDS011;70090;43.208;27.904;2024-03-23T08:28:46;35.67;;;29.67;;
11522;SDS011;70090;43.208;27.904;2024-03-23T08:31:13;22.03;;;16.47;;
11522;SDS011;70090;43.208;27.904;2024-03-23T08:33:40;23.07;;;19.20;;
11522;SDS011;70090;43.208;27.904;2024-03-23T08:36:08;19.83;;;15.43;;
11522;SDS011;70090;43.208;27.904;2024-03-23T08:38:37;17.97;;;15.63;;
11522;SDS011;70090;43.208;27.904;2024-03-23T08:41:05;16.53;;;14.37;;
11522;SDS011;70090;43.208;27.904;2024-03-23T08:43:35;13.40;;;11.27;;
11522;SDS011;70090;43.208;27.904;2024-03-23T08:46:03;13.90;;;12.23;;
11522;SDS011;70090;43.208;27.904;2024-03-23T08:48:31;18.60;;;13.40;;
11522;SDS011;70090;43.208;27.904;2024-03-23T08:51:00;13.77;;;10.23;;
11522;SDS011;70090;43.208;27.904;2024-03-23T08:53:28;15.17;;;11.07;;
11522;SDS011;70090;43.208;27.904;2024-03-23T08:55:54;13.40;;;10.87;;
11522;SDS011;70090;43.208;27.904;2024-03-23T08:58:24;11.80;;;10.50;;
11522;SDS011;70090;43.208;27.904;2024-03-23T09:00:51;14.50;;;11.60;;
11522;SDS011;70090;43.208;27.904;2024-03-23T09:03:20;9.97;;;8.53;;
11522;SDS011;70090;43.208;27.904;2024-03-23T09:05:47;10.77;;;8.13;;
11522;SDS011;70090;43.208;27.904;2024-03-23T09:08:14;9.90;;;8.63;;
11522;SDS011;70090;43.208;27.904;2024-03-23T09:10:40;10.03;;;8.23;;
11522;SDS011;70090;43.208;27.904;2024-03-23T09:13:07;11.60;;;8.70;;
11522;SDS011;70090;43.208;27.904;2024-03-23T09:15:35;10.77;;;9.07;;
11522;SDS011;70090;43.208;27.904;2024-03-23T09:18:03;11.20;;;9.00;;
11522;SDS011;70090;43.208;27.904;2024-03-23T09:20:32;10.37;;;8.23;;
11522;SDS011;70090;43.208;27.904;2024-03-23T09:22:59;13.40;;;9.20;;
11522;SDS011;70090;43.208;27.904;2024-03-23T09:25:25;13.33;;;9.83;;
11522;SDS011;70090;43.208;27.904;2024-03-23T09:27:52;12.43;;;8.93;;
11522;SDS011;70090;43.208;27.904;2024-03-23T09:30:18;9.37;;;7.90;;
11522;SDS011;70090;43.208;27.904;2024-03-23T09:32:47;13.40;;;11.20;;
11522;SDS011;70090;43.208;27.904;2024-03-23T09:35:14;13.13;;;11.70;;
11522;SDS011;70090;43.208;27.904;2024-03-23T09:37:41;12.83;;;11.27;;
11522;SDS011;70090;43.208;27.904;2024-03-23T09:40:08;12.17;;;10.80;;
11522;SDS011;70090;43.208;27.904;2024-03-23T09:42:36;12.67;;;10.47;;
11522;SDS011;70090;43.208;27.904;2024-03-23T09:45:02;12.47;;;10.27;;
11522;SDS011;70090;43.208;27.904;2024-03-23T09:47:33;12.00;;;10.67;;
11522;SDS011;70090;43.208;27.904;2024-03-23T09:50:00;11.03;;;9.93;;
11522;SDS011;70090;43.208;27.904;2024-03-23T09:52:30;13.67;;;10.53;;
11522;SDS011;70090;43.208;27.904;2024-03-23T09:54:56;11.83;;;10.63;;
11522;SDS011;70090;43.208;27.904;2024-03-23T09:57:23;12.50;;;10.90;;
11522;SDS011;70090;43.208;27.904;2024-03-23T09:59:49;10.40;;;9.20;;
11522;SDS011;70090;43.208;27.904;2024-03-23T10:02:16;10.40;;;9.30;;
11522;SDS011;70090;43.208;27.904;2024-03-23T10:04:45;9.30;;;8.20;;
11522;SDS011;70090;43.208;27.904;2024-03-23T10:07:15;9.20;;;8.20;;
11522;SDS011;70090;43.208;27.904;2024-03-23T10:09:43;9.13;;;8.23;;
11522;SDS011;70090;43.208;27.904;2024-03-23T10:12:10;11.30;;;8.57;;
11522;SDS011;70090;43.208;27.904;2024-03-23T10:14:39;11.97;;;8.47;;
11522;SDS011;70090;43.208;27.904;2024-03-23T10:17:13;8.40;;;7.50;;
11522;SDS011;70090;43.208;27.904;2024-03-23T10:19:40;8.47;;;7.20;;
11522;SDS011;70090;43.208;27.904;2024-03-23T10:22:08;7.83;;;7.03;;
11522;SDS011;70090;43.208;27.904;2024-03-23T10:24:36;11.00;;;7.70;;
11522;SDS011;70090;43.208;27.904;2024-03-23T10:27:03;10.33;;;7.47;;
11522;SDS011;70090;43.208;27.904;2024-03-23T10:29:29;8.17;;;6.17;;
11522;SDS011;70090;43.208;27.904;2024-03-23T10:32:07;8.37;;;6.40;;
11522;SDS011;70090;43.208;27.904;2024-03-23T10:34:34;7.17;;;5.50;;
11522;SDS011;70090;43.208;27.904;2024-03-23T10:37:01;6.07;;;5.47;;
11522;SDS011;70090;43.208;27.904;2024-03-23T10:39:29;6.93;;;6.23;;
11522;SDS011;70090;43.208;27.904;2024-03-23T10:42:00;7.37;;;5.20;;
11522;SDS011;70090;43.208;27.904;2024-03-23T10:44:27;6.17;;;5.57;;
11522;SDS011;70090;43.208;27.904;2024-03-23T10:46:56;6.83;;;6.03;;
11522;SDS011;70090;43.208;27.904;2024-03-23T10:49:25;8.83;;;5.87;;
11522;SDS011;70090;43.208;27.904;2024-03-23T10:51:55;9.30;;;6.17;;
11522;SDS011;70090;43.208;27.904;2024-03-23T10:54:22;8.07;;;6.80;;
11522;SDS011;70090;43.208;27.904;2024-03-23T10:56:51;9.83;;;8.03;;
11522;SDS011;70090;43.208;27.904;2024-03-23T10:59:23;10.47;;;7.33;;
11522;SDS011;70090;43.208;27.904;2024-03-23T11:01:55;6.60;;;5.97;;
11522;SDS011;70090;43.208;27.904;2024-03-23T11:09:55;8.80;;;6.50;;
11522;SDS011;70090;43.208;27.904;2024-03-23T11:12:31;7.60;;;6.53;;
11522;SDS011;70090;43.208;27.904;2024-03-23T11:15:01;8.47;;;7.20;;
11522;SDS011;70090;43.208;27.904;2024-03-23T11:17:30;8.57;;;6.60;;
11522;SDS011;70090;43.208;27.904;2024-03-23T11:19:56;7.67;;;6.90;;
11522;SDS011;70090;43.208;27.904;2024-03-23T11:22:40;8.90;;;7.70;;
11522;SDS011;70090;43.208;27.904;2024-03-23T11:25:14;7.20;;;6.50;;
11522;SDS011;70090;43.208;27.904;2024-03-23T11:27:45;8.63;;;7.33;;
11522;SDS011;70090;43.208;27.904;2024-03-23T11:30:14;8.23;;;7.20;;
11522;SDS011;70090;43.208;27.904;2024-03-23T11:32:42;9.40;;;7.07;;
11522;SDS011;70090;43.208;27.904;2024-03-23T11:35:09;8.90;;;7.30;;
11522;SDS011;70090;43.208;27.904;2024-03-23T11:37:37;9.03;;;7.17;;
11522;SDS011;70090;43.208;27.904;2024-03-23T11:40:19;8.97;;;6.73;;
11522;SDS011;70090;43.208;27.904;2024-03-23T11:42:46;8.63;;;6.73;;
11522;SDS011;70090;43.208;27.904;2024-03-23T11:45:14;7.60;;;6.23;;
11522;SDS011;70090;43.208;27.904;2024-03-23T11:47:41;7.00;;;6.30;;
11522;SDS011;70090;43.208;27.904;2024-03-23T11:50:07;7.40;;;6.70;;
11522;SDS011;70090;43.208;27.904;2024-03-23T11:52:35;7.73;;;6.47;;
11522;SDS011;70090;43.208;27.904;2024-03-23T11:55:05;8.50;;;6.80;;
11522;SDS011;70090;43.208;27.904;2024-03-23T11:57:33;8.53;;;6.90;;
11522;SDS011;70090;43.208;27.904;2024-03-23T11:59:59;9.40;;;6.63;;
11522;SDS011;70090;43.208;27.904;2024-03-23T12:02:28;12.17;;;8.93;;
11522;SDS011;70090;43.208;27.904;2024-03-23T12:04:54;8.63;;;7.27;;
11522;SDS011;70090;43.208;27.904;2024-03-23T12:07:21;8.43;;;7.53;;
11522;SDS011;70090;43.208;27.904;2024-03-23T12:09:47;11.87;;;8.10;;
11522;SDS011;70090;43.208;27.904;2024-03-23T12:12:29;9.53;;;7.77;;
11522;SDS011;70090;43.208;27.904;2024-03-23T12:15:05;8.50;;;7.70;;
11522;SDS011;70090;43.208;27.904;2024-03-23T12:17:35;7.83;;;6.67;;
11522;SDS011;70090;43.208;27.904;2024-03-23T12:20:01;9.63;;;7.53;;
11522;SDS011;70090;43.208;27.904;2024-03-23T12:22:29;8.33;;;7.20;;
11522;SDS011;70090;43.208;27.904;2024-03-23T12:24:55;9.87;;;6.97;;
11522;SDS011;70090;43.208;27.904;2024-03-23T12:27:22;9.83;;;8.00;;
11522;SDS011;70090;43.208;27.904;2024-03-23T12:29:49;11.30;;;8.80;;
11522;SDS011;70090;43.208;27.904;2024-03-23T12:32:15;10.60;;;8.03;;
11522;SDS011;70090;43.208;27.904;2024-03-23T12:34:45;9.10;;;8.20;;
11522;SDS011;70090;43.208;27.904;2024-03-23T12:37:12;12.37;;;9.00;;
11522;SDS011;70090;43.208;27.904;2024-03-23T12:39:39;10.53;;;9.30;;
11522;SDS011;70090;43.208;27.904;2024-03-23T12:42:05;11.40;;;9.50;;
11522;SDS011;70090;43.208;27.904;2024-03-23T12:44:33;14.00;;;10.70;;
11522;SDS011;70090;43.208;27.904;2024-03-23T12:46:59;15.67;;;10.87;;
11522;SDS011;70090;43.208;27.904;2024-03-23T12:49:26;13.07;;;10.60;;
11522;SDS011;70090;43.208;27.904;2024-03-23T12:51:56;12.57;;;10.80;;
11522;SDS011;70090;43.208;27.904;2024-03-23T12:54:24;14.73;;;11.47;;
11522;SDS011;70090;43.208;27.904;2024-03-23T12:56:50;16.57;;;11.93;;
11522;SDS011;70090;43.208;27.904;2024-03-23T12:59:17;12.47;;;11.03;;
11522;SDS011;70090;43.208;27.904;2024-03-23T13:01:43;12.77;;;10.73;;
11522;SDS011;70090;43.208;27.904;2024-03-23T13:04:10;12.67;;;10.77;;
11522;SDS011;70090;43.208;27.904;2024-03-23T13:06:36;13.20;;;10.70;;
11522;SDS011;70090;43.208;27.904;2024-03-23T13:09:05;14.17;;;10.50;;
11522;SDS011;70090;43.208;27.904;2024-03-23T13:11:31;11.13;;;9.80;;
11522;SDS011;70090;43.208;27.904;2024-03-23T13:13:58;12.33;;;10.20;;
11522;SDS011;70090;43.208;27.904;2024-03-23T13:16:24;11.00;;;9.83;;
11522;SDS011;70090;43.208;27.904;2024-03-23T13:18:51;11.70;;;9.73;;
11522;SDS011;70090;43.208;27.904;2024-03-23T13:21:17;12.90;;;9.70;;
11522;SDS011;70090;43.208;27.904;2024-03-23T13:23:46;10.20;;;9.20;;
11522;SDS011;70090;43.208;27.904;2024-03-23T13:26:16;9.60;;;8.67;;
11522;SDS011;70090;43.208;27.904;2024-03-23T13:28:46;10.63;;;8.20;;
11522;SDS011;70090;43.208;27.904;2024-03-23T13:31:12;10.07;;;8.77;;
11522;SDS011;70090;43.208;27.904;2024-03-23T13:33:39;13.47;;;8.50;;
11522;SDS011;70090;43.208;27.904;2024-03-23T13:36:07;7.37;;;6.57;;
11522;SDS011;70090;43.208;27.904;2024-03-23T13:38:34;6.60;;;5.90;;
11522;SDS011;70090;43.208;27.904;2024-03-23T13:41:00;7.83;;;6.40;;
11522;SDS011;70090;43.208;27.904;2024-03-23T13:43:31;7.90;;;6.53;;
11522;SDS011;70090;43.208;27.904;2024-03-23T13:45:57;7.93;;;6.10;;
11522;SDS011;70090;43.208;27.904;2024-03-23T13:48:25;8.97;;;6.47;;
11522;SDS011;70090;43.208;27.904;2024-03-23T13:50:58;8.67;;;6.93;;
11522;SDS011;70090;43.208;27.904;2024-03-23T13:53:26;8.30;;;6.77;;
11522;SDS011;70090;43.208;27.904;2024-03-23T13:55:52;8.43;;;6.63;;
11522;SDS011;70090;43.208;27.904;2024-03-23T13:58:19;12.00;;;7.30;;
11522;SDS011;70090;43.208;27.904;2024-03-23T14:00:47;10.77;;;7.90;;
11522;SDS011;70090;43.208;27.904;2024-03-23T14:03:14;9.43;;;7.77;;
11522;SDS011;70090;43.208;27.904;2024-03-23T14:05:40;11.00;;;7.27;;
11522;SDS011;70090;43.208;27.904;2024-03-23T14:08:07;8.37;;;7.50;;
11522;SDS011;70090;43.208;27.904;2024-03-23T14:10:34;10.30;;;7.33;;
11522;SDS011;70090;43.208;27.904;2024-03-23T14:13:02;9.27;;;7.40;;
11522;SDS011;70090;43.208;27.904;2024-03-23T14:15:28;7.93;;;7.00;;
11522;SDS011;70090;43.208;27.904;2024-03-23T14:17:57;10.50;;;7.30;;
11522;SDS011;70090;43.208;27.904;2024-03-23T14:20:23;10.27;;;7.27;;
11522;SDS011;70090;43.208;27.904;2024-03-23T14:22:50;9.60;;;6.47;;
11522;SDS011;70090;43.208;27.904;2024-03-23T14:25:17;9.77;;;6.97;;
11522;SDS011;70090;43.208;27.904;2024-03-23T14:27:44;9.57;;;6.73;;
11522;SDS011;70090;43.208;27.904;2024-03-23T14:30:11;6.40;;;5.80;;
11522;SDS011;70090;43.208;27.904;2024-03-23T14:32:39;8.47;;;6.33;;
11522;SDS011;70090;43.208;27.904;2024-03-23T14:35:07;8.07;;;5.70;;
11522;SDS011;70090;43.208;27.904;2024-03-23T14:37:36;6.60;;;5.73;;
11522;SDS011;70090;43.208;27.904;2024-03-23T14:40:02;7.13;;;6.20;;
11522;SDS011;70090;43.208;27.904;2024-03-23T14:42:29;7.77;;;5.97;;
11522;SDS011;70090;43.208;27.904;2024-03-23T14:44:56;5.60;;;5.10;;
11522;SDS011;70090;43.208;27.904;2024-03-23T14:47:23;7.43;;;5.77;;
11522;SDS011;70090;43.208;27.904;2024-03-23T14:49:49;9.90;;;5.70;;
11522;SDS011;70090;43.208;27.904;2024-03-23T14:52:18;9.13;;;5.43;;
11522;SDS011;70090;43.208;27.904;2024-03-23T14:54:45;87.03;;;14.57;;
11522;SDS011;70090;43.208;27.904;2024-03-23T14:57:12;9.47;;;6.17;;
11522;SDS011;70090;43.208;27.904;2024-03-23T14:59:38;8.13;;;6.43;;
11522;SDS011;70090;43.208;27.904;2024-03-23T15:02:06;9.60;;;5.53;;
11522;SDS011;70090;43.208;27.904;2024-03-23T15:04:32;7.03;;;5.30;;
11522;SDS011;70090;43.208;27.904;2024-03-23T15:06:59;10.00;;;5.67;;
11522;SDS011;70090;43.208;27.904;2024-03-23T15:09:27;6.70;;;5.57;;
11522;SDS011;70090;43.208;27.904;2024-03-23T15:11:54;7.03;;;5.47;;
11522;SDS011;70090;43.208;27.904;2024-03-23T15:14:21;7.63;;;5.70;;